Time;durP1;ratioP1;P1;durP2;ratioP2;P2;SDS_P1;SDS_P2;PMS_P1;PMS_P2;Temp;Humidity;BMP_temperature;BMP_pressure;BME280_temperature;BME280_humidity;BME280_pressure;Samples;Min_cycle;Max_cycle;Signal;HPM_P1;HPM_P2
2020/12/13 00:01:33;;;;;;;23.27;19.80;;;;;;;5.65;85.33;99445.03;5055851;28;20198;-85
2020/12/13 00:03:59;;;;;;;20.17;18.13;;;;;;;5.61;85.44;99438.19;5056712;28;20227;-85
2020/12/13 00:06:25;;;;;;;28.60;20.63;;;;;;;5.64;84.69;99445.91;5069607;28;20207;-81
2020/12/13 00:08:51;;;;;;;24.27;20.33;;;;;;;5.70;84.81;99444.06;5054872;28;20231;-82
2020/12/13 00:11:17;;;;;;;23.23;19.43;;;;;;;5.64;84.61;99449.34;5070402;28;20221;-82
2020/12/13 00:13:46;;;;;;;24.80;20.87;;;;;;;5.66;85.32;99452.78;5055748;28;20240;-81
2020/12/13 00:16:16;;;;;;;22.10;19.73;;;;;;;5.62;85.21;99458.03;5069838;28;20827;-82
2020/12/13 00:18:43;;;;;;;23.37;18.77;;;;;;;5.64;85.04;99457.13;5054243;28;20321;-83
2020/12/13 00:21:12;;;;;;;25.27;21.00;;;;;;;5.66;85.18;99457.94;5070915;28;20246;-82
2020/12/13 00:23:39;;;;;;;23.37;19.73;;;;;;;5.66;85.10;99457.94;5054895;28;20561;-82
2020/12/13 00:26:07;;;;;;;22.77;19.07;;;;;;;5.70;84.80;99456.19;5063998;28;20688;-82
2020/12/13 00:28:32;;;;;;;28.60;22.47;;;;;;;5.71;84.57;99466.53;5057370;28;20254;-82
2020/12/13 00:30:58;;;;;;;25.60;21.30;;;;;;;5.69;84.59;99462.22;5071140;28;20577;-82
2020/12/13 00:33:24;;;;;;;27.37;21.20;;;;;;;5.70;84.87;99463.94;5060468;28;20293;-83
2020/12/13 00:35:50;;;;;;;32.27;23.40;;;;;;;5.69;84.66;99473.44;5072302;28;20276;-81
2020/12/13 00:38:16;;;;;;;32.57;22.60;;;;;;;5.67;85.06;99471.75;5063568;28;20257;-82
2020/12/13 00:40:43;;;;;;;25.50;21.57;;;;;;;5.69;84.93;99476.03;5071962;28;20197;-84
2020/12/13 00:43:08;;;;;;;35.97;23.27;;;;;;;5.73;84.82;99482.03;5063940;28;20200;-83
2020/12/13 00:45:34;;;;;;;32.73;22.37;;;;;;;5.71;84.68;99484.63;5066621;28;20242;-83
2020/12/13 00:48:00;;;;;;;36.57;23.10;;;;;;;5.67;84.87;99482.09;5065802;28;20193;-79
2020/12/13 00:50:26;;;;;;;30.60;22.90;;;;;;;5.68;84.87;99479.50;5070227;28;20202;-83
2020/12/13 00:52:52;;;;;;;30.77;24.00;;;;;;;5.70;85.04;99482.06;5067082;28;20258;-84
2020/12/13 00:55:18;;;;;;;30.03;22.53;;;;;;;5.77;84.56;99483.69;5051414;28;20231;-84
2020/12/13 00:57:44;;;;;;;33.03;22.63;;;;;;;5.73;84.89;99488.06;5056768;28;20201;-83
2020/12/13 01:00:10;;;;;;;31.43;23.40;;;;;;;5.75;84.58;99490.63;5056591;28;20319;-83
2020/12/13 01:02:36;;;;;;;29.77;21.50;;;;;;;5.75;84.65;99485.47;5057227;28;20575;-84
2020/12/13 01:05:02;;;;;;;28.77;22.13;;;;;;;5.73;84.53;99488.06;5056815;28;20229;-84
2020/12/13 01:07:28;;;;;;;29.23;21.40;;;;;;;5.72;84.53;99490.66;5057532;28;20588;-83
2020/12/13 01:09:54;;;;;;;29.60;21.80;;;;;;;5.72;84.95;99491.50;5057636;28;20305;-82
2020/12/13 01:12:19;;;;;;;33.03;22.83;;;;;;;5.69;85.10;99495.88;5049740;28;20202;-84
2020/12/13 01:14:46;;;;;;;34.60;23.17;;;;;;;5.66;85.32;99494.19;5052364;28;20253;-83
2020/12/13 01:17:12;;;;;;;24.57;20.33;;;;;;;5.70;85.26;99495.00;5057506;28;20269;-84
2020/12/13 01:19:38;;;;;;;32.47;20.93;;;;;;;5.72;84.93;99496.69;5052302;28;20695;-84
2020/12/13 01:22:06;;;;;;;35.03;22.77;;;;;;;5.74;85.45;99494.94;5067356;28;20673;-82
2020/12/13 01:24:32;;;;;;;27.37;21.73;;;;;;;5.78;84.85;99503.53;5065916;28;20193;-84
2020/12/13 01:26:58;;;;;;;24.53;21.17;;;;;;;5.81;84.71;99505.19;5068375;28;20277;-84
2020/12/13 01:29:24;;;;;;;33.37;23.00;;;;;;;5.77;84.62;99502.69;5060966;28;20592;-83
2020/12/13 01:31:50;;;;;;;35.57;22.87;;;;;;;5.78;85.31;99506.09;5066914;28;20237;-84
2020/12/13 01:34:16;;;;;;;36.13;22.13;;;;;;;5.76;85.24;99510.47;5064038;28;20205;-83
2020/12/13 01:36:42;;;;;;;27.30;20.97;;;;;;;5.72;85.61;99514.81;5068041;28;20289;-83
2020/12/13 01:39:08;;;;;;;33.13;23.20;;;;;;;5.77;85.42;99514.78;5060973;28;20316;-82
2020/12/13 01:41:34;;;;;;;32.87;22.83;;;;;;;5.82;85.24;99518.13;5067564;28;20212;-84
2020/12/13 01:44:03;;;;;;;31.87;22.77;;;;;;;5.79;85.22;99505.25;5062313;28;20201;-82
2020/12/13 01:46:29;;;;;;;34.40;22.47;;;;;;;5.82;84.54;99514.69;5060496;28;20194;-82
2020/12/13 01:49:01;;;;;;;37.17;23.37;;;;;;;5.79;84.82;99510.44;5062178;28;20243;-84
2020/12/13 01:51:41;;;;;;;35.17;24.63;;;;;;;5.73;85.51;99511.38;5067357;28;20203;-81
2020/12/13 01:54:12;;;;;;;31.23;21.97;;;;;;;5.82;85.25;99506.94;5059927;28;20237;-80
2020/12/13 01:56:41;;;;;;;33.80;21.83;;;;;;;5.83;85.11;99506.91;5068118;28;20292;-84
2020/12/13 01:59:09;;;;;;;34.00;22.83;;;;;;;5.76;84.92;99515.63;5062282;28;20231;-83
2020/12/13 02:01:38;;;;;;;37.07;23.50;;;;;;;5.71;85.33;99523.47;5068670;28;20248;-83
2020/12/13 02:04:06;;;;;;;32.43;22.20;;;;;;;5.67;85.30;99519.22;5061432;28;20206;-82
2020/12/13 02:06:34;;;;;;;31.30;22.67;;;;;;;5.73;84.78;99520.88;5068100;28;20201;-83
2020/12/13 02:09:00;;;;;;;36.73;24.00;;;;;;;5.71;85.03;99520.88;5063175;28;20218;-83
2020/12/13 02:11:31;;;;;;;32.80;22.87;;;;;;;5.66;85.32;99521.81;5069198;28;20204;-83
2020/12/13 02:13:57;;;;;;;29.30;21.77;;;;;;;5.60;85.20;99521.91;5063106;28;20197;-83
2020/12/13 02:16:22;;;;;;;31.57;21.87;;;;;;;5.69;84.81;99516.59;5063947;28;20211;-84
2020/12/13 02:18:48;;;;;;;27.27;20.27;;;;;;;5.68;84.95;99520.06;5055481;28;20645;-84
2020/12/13 02:21:15;;;;;;;24.07;20.53;;;;;;;5.67;85.48;99520.94;5065322;28;20239;-83
2020/12/13 02:23:42;;;;;;;26.73;20.27;;;;;;;5.66;85.36;99524.41;5056174;28;20296;-84
2020/12/13 02:26:09;;;;;;;25.73;18.97;;;;;;;5.60;85.24;99542.63;5064270;28;20500;-84
2020/12/13 02:28:35;;;;;;;26.27;19.90;;;;;;;5.65;85.46;99553.75;5055831;28;20285;-84
2020/12/13 02:31:02;;;;;;;25.30;19.30;;;;;;;5.69;85.35;99547.66;5066232;28;20236;-84
2020/12/13 02:33:28;;;;;;;26.47;20.27;;;;;;;5.72;84.86;99553.66;5057322;28;20201;-84
2020/12/13 02:35:53;;;;;;;26.20;20.17;;;;;;;5.63;85.08;99550.34;5065674;28;20212;-84
2020/12/13 02:38:19;;;;;;;26.33;20.03;;;;;;;5.65;85.44;99553.75;5059410;28;20251;-82
2020/12/13 02:40:46;;;;;;;28.70;19.57;;;;;;;5.69;85.59;99555.41;5066422;28;20250;-84
2020/12/13 02:43:12;;;;;;;23.83;18.53;;;;;;;5.72;85.04;99561.41;5061136;28;20201;-84
2020/12/13 02:45:38;;;;;;;22.83;17.90;;;;;;;5.71;85.26;99558.88;5064966;28;20275;-84
2020/12/13 02:48:04;;;;;;;27.77;19.47;;;;;;;5.66;85.33;99558.91;5060609;28;20615;-84
2020/12/13 02:50:31;;;;;;;22.00;18.10;;;;;;;5.69;85.53;99552.84;5064556;28;20550;-83
2020/12/13 02:52:57;;;;;;;25.27;18.77;;;;;;;5.71;85.33;99562.31;5057416;28;20201;-82
2020/12/13 02:55:23;;;;;;;30.10;19.97;;;;;;;5.66;85.35;99547.72;5061163;28;20216;-82
2020/12/13 02:57:50;;;;;;;24.63;20.00;;;;;;;5.74;85.25;99569.19;5061621;28;20292;-84
2020/12/13 03:00:16;;;;;;;26.80;19.43;;;;;;;5.68;85.19;99556.31;5064630;28;20229;-84
2020/12/13 03:02:41;;;;;;;23.70;18.57;;;;;;;5.77;85.26;99556.22;5063007;28;20193;-82
2020/12/13 03:05:07;;;;;;;25.03;19.10;;;;;;;5.80;84.65;99552.72;5064438;28;20631;-84
2020/12/13 03:07:33;;;;;;;21.87;17.53;;;;;;;5.74;85.45;99567.44;5066217;28;20657;-84
2020/12/13 03:09:59;;;;;;;24.97;18.67;;;;;;;5.73;84.82;99557.13;5061099;28;20604;-84
2020/12/13 03:12:25;;;;;;;27.00;19.50;;;;;;;5.75;85.02;99563.97;5066568;28;20202;-84
2020/12/13 03:14:52;;;;;;;22.83;18.97;;;;;;;5.76;85.15;99568.28;5062113;28;20200;-84
2020/12/13 03:17:18;;;;;;;27.73;21.20;;;;;;;5.68;84.94;99569.25;5066984;28;20209;-84
2020/12/13 03:19:44;;;;;;;25.07;20.20;;;;;;;5.67;85.58;99568.41;5062000;28;20266;-84
2020/12/13 03:22:10;;;;;;;25.83;19.30;;;;;;;5.73;85.49;99565.75;5069926;28;20225;-84
2020/12/13 03:24:35;;;;;;;26.63;20.83;;;;;;;5.72;86.04;99565.75;5061810;28;20202;-84
2020/12/13 03:27:01;;;;;;;29.60;20.77;;;;;;;5.71;85.42;99571.81;5064648;28;20585;-84
2020/12/13 03:29:27;;;;;;;23.83;19.13;;;;;;;5.71;85.45;99574.41;5061164;28;20284;-83
2020/12/13 03:31:54;;;;;;;22.03;18.73;;;;;;;5.71;85.58;99574.41;5065748;28;20223;-84
2020/12/13 03:34:20;;;;;;;22.97;19.70;;;;;;;5.74;86.05;99582.13;5060004;28;20288;-84
2020/12/13 03:36:46;;;;;;;27.47;19.03;;;;;;;5.76;85.46;99583.81;5076853;28;20197;-84
2020/12/13 03:39:12;;;;;;;23.83;18.93;;;;;;;5.82;85.86;99582.03;5054646;28;20235;-82
2020/12/13 03:41:38;;;;;;;22.00;18.47;;;;;;;5.76;85.85;99588.97;5078818;28;20196;-83
2020/12/13 03:44:03;;;;;;;28.40;20.30;;;;;;;5.75;85.71;99592.47;5061809;28;20228;-83
2020/12/13 03:46:29;;;;;;;19.00;17.07;;;;;;;5.75;85.73;99592.47;5078757;28;20197;-84
2020/12/13 03:48:56;;;;;;;20.47;18.27;;;;;;;5.75;85.90;99596.81;5060960;28;20302;-82
2020/12/13 03:51:22;;;;;;;20.47;18.27;;;;;;;5.76;85.53;99601.94;5059817;28;20194;-84
2020/12/13 03:53:48;;;;;;;22.50;17.40;;;;;;;5.79;85.63;99603.66;5054886;28;20208;-83
2020/12/13 03:56:14;;;;;;;19.77;16.93;;;;;;;5.78;85.84;99607.94;5059671;28;20245;-83
2020/12/13 03:58:40;;;;;;;19.87;16.03;;;;;;;5.77;85.52;99608.84;5058533;28;20643;-82
2020/12/13 04:01:05;;;;;;;21.53;16.97;;;;;;;5.82;85.54;99601.00;5060699;28;20256;-84
2020/12/13 04:03:31;;;;;;;19.53;16.97;;;;;;;5.86;85.39;99614.78;5058870;28;20289;-84
2020/12/13 04:05:58;;;;;;;22.60;17.70;;;;;;;5.85;85.73;99615.66;5061804;28;20207;-84
2020/12/13 04:08:24;;;;;;;18.47;16.57;;;;;;;5.85;85.54;99629.47;5059498;28;20251;-84
2020/12/13 04:10:49;;;;;;;23.07;17.30;;;;;;;5.81;85.61;99627.78;5061517;28;20194;-84
2020/12/13 04:13:15;;;;;;;23.53;18.57;;;;;;;5.88;85.58;99628.56;5058652;28;20643;-84
2020/12/13 04:15:41;;;;;;;21.67;16.93;;;;;;;5.90;86.27;99622.47;5061554;28;20233;-84
2020/12/13 04:18:07;;;;;;;17.83;16.00;;;;;;;5.94;85.93;99624.16;5060220;28;20208;-84
2020/12/13 04:20:34;;;;;;;19.33;16.20;;;;;;;5.95;85.55;99628.50;5058031;28;20248;-84
2020/12/13 04:23:00;;;;;;;20.73;18.23;;;;;;;5.96;85.21;99624.16;5060984;28;20206;-84
2020/12/13 04:25:26;;;;;;;17.40;15.70;;;;;;;5.97;85.65;99623.31;5057112;28;20215;-83
2020/12/13 04:27:52;;;;;;;18.20;16.23;;;;;;;5.97;86.08;99621.56;5061236;28;20194;-83
2020/12/13 04:30:18;;;;;;;16.00;14.50;;;;;;;6.01;85.69;99621.53;5059370;28;20260;-84
2020/12/13 04:32:44;;;;;;;16.73;15.03;;;;;;;6.00;85.47;99624.97;5061818;28;20207;-84
2020/12/13 04:35:11;;;;;;;18.37;16.23;;;;;;;6.01;85.48;99624.13;5064346;28;20597;-84
2020/12/13 04:37:37;;;;;;;21.93;15.93;;;;;;;6.05;85.37;99626.63;5062736;28;20602;-84
2020/12/13 04:40:04;;;;;;;16.47;14.87;;;;;;;6.06;85.18;99633.53;5064976;28;20232;-84
2020/12/13 04:42:35;;;;;;;15.73;14.10;;;;;;;6.07;85.07;99630.06;5064918;28;20548;-84
2020/12/13 04:45:01;;;;;;;17.63;15.93;;;;;;;6.04;85.78;99630.09;5064575;28;20202;-84
2020/12/13 04:47:29;;;;;;;16.30;14.63;;;;;;;5.96;85.55;99637.97;5065718;28;20204;-84
2020/12/13 04:49:58;;;;;;;16.67;15.07;;;;;;;6.04;85.01;99637.03;5064105;28;20219;-84
2020/12/13 04:52:25;;;;;;;18.30;16.37;;;;;;;6.05;85.09;99639.59;5068779;28;20198;-85
2020/12/13 04:54:51;;;;;;;18.90;16.17;;;;;;;6.04;84.69;99631.84;5064304;28;21306;-83
2020/12/13 04:57:19;;;;;;;17.43;15.63;;;;;;;6.06;85.76;99635.25;5065451;28;20210;-84
2020/12/13 04:59:47;;;;;;;17.80;15.93;;;;;;;6.06;85.89;99635.25;5065074;28;20225;-84
2020/12/13 05:02:13;;;;;;;17.07;15.47;;;;;;;6.08;85.40;99633.50;5059093;28;20248;-83
2020/12/13 05:04:40;;;;;;;18.30;15.60;;;;;;;6.08;85.11;99646.47;5061823;28;20205;-84
2020/12/13 05:07:06;;;;;;;17.27;15.47;;;;;;;6.08;85.59;99647.31;5073834;28;20254;-82
2020/12/13 05:09:32;;;;;;;16.67;15.10;;;;;;;6.09;85.04;99651.63;5058259;28;20215;-84
2020/12/13 05:11:58;;;;;;;18.10;15.70;;;;;;;6.07;85.06;99652.53;5067116;28;20206;-84
2020/12/13 05:14:25;;;;;;;18.50;16.60;;;;;;;6.12;84.72;99655.91;5059492;28;20224;-84
2020/12/13 05:17:05;;;;;;;17.73;16.07;;;;;;;6.12;85.04;99661.94;5059473;28;20620;-84
2020/12/13 05:19:31;;;;;;;20.47;17.17;;;;;;;6.06;85.75;99664.59;5056494;28;20223;-84
2020/12/13 05:21:58;;;;;;;17.57;15.87;;;;;;;6.07;85.51;99668.94;5058814;28;20193;-83
2020/12/13 05:24:24;;;;;;;17.77;15.97;;;;;;;6.06;85.19;99674.13;5051919;28;20207;-83
2020/12/13 05:26:58;;;;;;;17.87;16.00;;;;;;;6.06;85.52;99668.94;5059031;28;20630;-84
2020/12/13 05:29:25;;;;;;;17.17;15.47;;;;;;;6.04;85.61;99671.53;5058011;28;20229;-83
2020/12/13 05:31:51;;;;;;;17.17;15.37;;;;;;;6.01;85.76;99674.19;5061966;28;20655;-85
2020/12/13 05:34:17;;;;;;;18.37;15.60;;;;;;;6.04;85.90;99678.47;5058814;28;20220;-84
2020/12/13 05:36:44;;;;;;;17.83;14.73;;;;;;;6.04;86.15;99681.91;5063088;28;20199;-84
2020/12/13 05:39:12;;;;;;;16.83;15.23;;;;;;;6.05;85.83;99686.22;5060531;28;20246;-82
2020/12/13 05:41:39;;;;;;;17.97;15.27;;;;;;;6.06;85.85;99685.34;5065609;28;20198;-83
2020/12/13 05:44:23;;;;;;;15.53;13.93;;;;;;;6.07;85.84;99686.22;5057648;28;20208;-83
2020/12/13 05:47:02;;;;;;;16.83;14.00;;;;;;;6.09;86.49;99687.06;5065946;28;20207;-84
2020/12/13 05:52:14;;;;;;;15.00;13.43;;;;;;;6.07;86.30;99692.25;5066832;28;20206;-83
2020/12/13 05:54:40;;;;;;;14.53;13.13;;;;;;;6.07;85.77;99687.06;5060605;28;20204;-84
2020/12/13 05:57:09;;;;;;;14.43;13.00;;;;;;;6.06;85.63;99693.09;5063096;28;20204;-84
2020/12/13 05:59:36;;;;;;;15.57;13.03;;;;;;;6.10;85.96;99694.78;5063992;28;20230;-82
2020/12/13 06:02:03;;;;;;;14.63;13.23;;;;;;;6.09;86.13;99692.22;5072801;28;20214;-82
2020/12/13 06:04:31;;;;;;;14.93;13.53;;;;;;;6.11;85.96;99698.25;5064250;28;20204;-82
2020/12/13 06:06:58;;;;;;;14.97;13.50;;;;;;;6.10;85.35;99693.94;5074807;28;20203;-82
2020/12/13 06:09:32;;;;;;;16.13;14.53;;;;;;;6.12;85.92;99699.94;5058156;28;20220;-82
2020/12/13 06:12:01;;;;;;;14.83;13.43;;;;;;;6.10;86.11;99704.28;5068668;28;20666;-82
2020/12/13 06:14:27;;;;;;;17.53;14.83;;;;;;;6.04;86.36;99705.22;5054185;28;20203;-82
2020/12/13 06:16:53;;;;;;;15.77;14.27;;;;;;;6.01;86.17;99710.47;5060284;28;20198;-83
2020/12/13 06:19:23;;;;;;;15.10;13.43;;;;;;;5.97;87.17;99712.22;5058518;28;20226;-82
2020/12/13 06:21:49;;;;;;;16.17;14.47;;;;;;;6.01;86.33;99710.47;5061451;28;20198;-82
2020/12/13 06:24:16;;;;;;;16.40;14.67;;;;;;;6.05;86.17;99706.09;5059149;28;20732;-82
2020/12/13 06:26:42;;;;;;;16.03;14.53;;;;;;;6.00;86.28;99710.47;5061349;28;20200;-82
2020/12/13 06:29:08;;;;;;;16.57;14.60;;;;;;;5.98;86.74;99713.06;5060687;28;20308;-81
2020/12/13 06:31:38;;;;;;;17.27;15.13;;;;;;;6.05;86.23;99708.69;5058834;28;20198;-82
2020/12/13 06:34:05;;;;;;;17.10;15.40;;;;;;;6.05;86.45;99708.69;5059670;28;21030;-82
2020/12/13 06:36:33;;;;;;;18.67;16.70;;;;;;;6.10;86.03;99715.50;5065631;28;20197;-82
2020/12/13 06:38:59;;;;;;;16.63;15.03;;;;;;;6.11;85.72;99703.44;5058453;28;20767;-82
2020/12/13 06:41:26;;;;;;;18.10;16.27;;;;;;;6.12;85.40;99713.75;5068306;28;20220;-82
2020/12/13 06:44:05;;;;;;;18.30;16.30;;;;;;;6.10;86.34;99720.69;5056500;28;20207;-82
2020/12/13 06:46:31;;;;;;;17.03;15.23;;;;;;;6.09;86.33;99720.72;5068317;28;20208;-82
2020/12/13 06:48:58;;;;;;;17.80;15.90;;;;;;;6.15;86.03;99726.69;5057688;28;20277;-81
2020/12/13 06:51:26;;;;;;;21.00;17.50;;;;;;;6.09;85.92;99724.16;5071211;28;20198;-81
2020/12/13 06:53:54;;;;;;;16.83;15.13;;;;;;;6.11;85.83;99725.00;5054481;28;20202;-81
2020/12/13 06:56:20;;;;;;;20.57;18.00;;;;;;;6.12;86.15;99733.63;5067546;28;20254;-81
2020/12/13 06:58:48;;;;;;;21.13;17.30;;;;;;;6.15;85.47;99734.47;5054670;28;20240;-81
2020/12/13 07:01:18;;;;;;;19.80;17.40;;;;;;;6.14;86.14;99737.06;5061532;28;20280;-81
2020/12/13 07:03:44;;;;;;;18.67;16.77;;;;;;;6.14;86.50;99747.44;5058360;28;20463;-81
2020/12/13 07:06:17;;;;;;;20.47;18.30;;;;;;;6.07;85.63;99745.81;5075972;28;20572;-81
2020/12/13 07:08:47;;;;;;;23.43;18.83;;;;;;;6.08;86.45;99753.53;5061281;28;20229;-81
2020/12/13 07:11:15;;;;;;;22.33;18.17;;;;;;;6.07;86.28;99751.84;5060024;28;20235;-81
2020/12/13 07:13:43;;;;;;;23.80;18.87;;;;;;;6.08;86.61;99753.53;5060556;28;20205;-84
2020/12/13 07:16:11;;;;;;;20.03;17.90;;;;;;;6.10;86.30;99758.69;5062762;28;20199;-81
2020/12/13 07:18:42;;;;;;;18.77;16.77;;;;;;;6.11;86.74;99763.88;5060853;28;20223;-81
2020/12/13 07:21:08;;;;;;;21.47;17.23;;;;;;;6.12;86.00;99768.16;5062486;28;20224;-83
2020/12/13 07:23:36;;;;;;;24.20;19.70;;;;;;;6.13;85.91;99767.31;5057735;28;20284;-81
2020/12/13 07:26:01;;;;;;;20.57;18.47;;;;;;;6.18;86.53;99769.81;5062678;28;20247;-81
2020/12/13 07:28:30;;;;;;;25.77;18.60;;;;;;;6.21;85.97;99768.97;5060630;28;20221;-81
2020/12/13 07:30:59;;;;;;;22.87;18.33;;;;;;;6.19;85.99;99776.75;5064868;28;20283;-81
2020/12/13 07:33:25;;;;;;;19.80;17.23;;;;;;;6.22;85.76;99781.88;5050882;28;20209;-81
2020/12/13 07:35:51;;;;;;;25.43;17.43;;;;;;;6.20;85.73;99777.59;5066813;28;20231;-80
2020/12/13 07:38:17;;;;;;;18.80;16.87;;;;;;;6.23;86.49;99775.84;5070706;28;20302;-81
2020/12/13 07:40:43;;;;;;;20.93;18.73;;;;;;;6.19;86.37;99783.66;5070762;28;20249;-81
2020/12/13 07:43:09;;;;;;;20.53;18.00;;;;;;;6.21;86.13;99792.28;5073238;28;20286;-81
2020/12/13 07:45:36;;;;;;;19.00;17.07;;;;;;;6.20;86.84;99787.97;5070062;28;20218;-81
2020/12/13 07:48:02;;;;;;;23.20;18.37;;;;;;;6.20;86.67;99793.16;5072004;28;20260;-81
2020/12/13 07:50:29;;;;;;;21.23;18.07;;;;;;;6.23;86.06;99795.72;5068153;28;20201;-81
2020/12/13 07:52:55;;;;;;;20.33;17.83;;;;;;;6.23;86.01;99801.75;5074025;28;20210;-81
2020/12/13 07:55:21;;;;;;;24.43;18.13;;;;;;;6.25;86.64;99806.91;5067112;28;20281;-81
2020/12/13 07:57:48;;;;;;;23.60;18.73;;;;;;;6.27;86.23;99808.59;5072690;28;20222;-81
2020/12/13 08:00:14;;;;;;;19.53;17.33;;;;;;;6.29;86.10;99803.41;5066495;28;20221;-81
2020/12/13 08:02:41;;;;;;;23.17;17.33;;;;;;;6.31;86.94;99801.66;5070724;28;20199;-83
2020/12/13 08:05:06;;;;;;;20.30;17.07;;;;;;;6.29;86.19;99818.97;5068994;28;20232;-83
2020/12/13 08:07:32;;;;;;;19.97;16.83;;;;;;;6.31;86.51;99812.88;5072966;28;20198;-83
2020/12/13 08:09:58;;;;;;;22.90;18.30;;;;;;;6.32;86.43;99812.00;5066146;28;20228;-81
2020/12/13 08:12:32;;;;;;;20.20;18.10;;;;;;;6.33;85.67;99815.47;5071480;28;20205;-81
2020/12/13 08:14:58;;;;;;;22.50;18.07;;;;;;;6.31;86.09;99817.22;5069144;28;20206;-83
2020/12/13 08:17:24;;;;;;;18.70;16.60;;;;;;;6.33;86.83;99816.31;5077615;28;20281;-83
2020/12/13 08:19:54;;;;;;;20.17;17.73;;;;;;;6.36;86.51;99823.19;5064588;28;20243;-82
2020/12/13 08:22:22;;;;;;;30.10;19.83;;;;;;;6.32;86.94;99824.97;5067909;28;20195;-80
2020/12/13 08:24:53;;;;;;;27.13;19.90;;;;;;;6.34;86.51;99827.53;5062552;28;20200;-83
2020/12/13 08:27:19;;;;;;;24.83;18.63;;;;;;;6.30;86.58;99829.31;5061398;28;20214;-84
2020/12/13 08:29:45;;;;;;;27.17;19.80;;;;;;;6.32;87.20;99834.47;5056066;28;20647;-82
2020/12/13 08:32:12;;;;;;;24.57;19.27;;;;;;;6.32;87.11;99830.16;5062527;28;20576;-84
2020/12/13 08:34:38;;;;;;;30.67;19.83;;;;;;;6.33;87.15;99847.41;5060092;28;20228;-83
2020/12/13 08:37:05;;;;;;;29.83;19.77;;;;;;;6.31;87.80;99843.97;5061989;28;20733;-83
2020/12/13 08:39:32;;;;;;;33.40;21.77;;;;;;;6.34;87.19;99843.06;5067370;28;20711;-80
2020/12/13 08:42:00;;;;;;;36.20;20.63;;;;;;;6.38;87.55;99839.56;5074488;28;20256;-81
2020/12/13 08:44:28;;;;;;;30.03;19.87;;;;;;;6.34;87.40;99849.16;5074702;28;20205;-82
2020/12/13 08:46:55;;;;;;;28.10;20.20;;;;;;;6.39;87.55;99849.09;5073831;28;20532;-84
2020/12/13 08:49:25;;;;;;;28.70;21.03;;;;;;;6.40;87.42;99848.19;5066514;28;20221;-84
2020/12/13 08:51:51;;;;;;;29.50;20.57;;;;;;;6.46;86.97;99853.34;5051125;28;20241;-80
2020/12/13 08:54:18;;;;;;;26.80;20.17;;;;;;;6.46;87.93;99860.22;5050216;28;21333;-81
2020/12/13 08:56:44;;;;;;;26.83;19.27;;;;;;;6.44;87.13;99859.38;5051027;28;20211;-81
2020/12/13 08:59:18;;;;;;;24.23;18.67;;;;;;;6.48;87.31;99869.72;5051323;28;20317;-82
2020/12/13 09:01:53;;;;;;;27.93;19.40;;;;;;;6.53;87.57;99867.91;5051704;28;20283;-81
2020/12/13 09:04:20;;;;;;;25.97;19.83;;;;;;;6.56;87.07;99872.19;5051381;28;20203;-81
2020/12/13 09:06:55;;;;;;;28.10;20.33;;;;;;;6.51;87.98;99872.28;5050930;28;20208;-80
2020/12/13 09:09:22;;;;;;;23.70;19.07;;;;;;;6.58;87.20;99875.66;5051182;28;20234;-82
2020/12/13 09:11:49;;;;;;;24.50;18.70;;;;;;;6.65;86.96;99887.66;5051146;28;20681;-81
2020/12/13 09:14:34;;;;;;;33.80;20.70;;;;;;;6.72;87.52;99891.06;5051029;28;20772;-81
2020/12/13 09:17:02;;;;;;;24.17;19.63;;;;;;;6.75;86.77;99886.66;5052852;28;20256;-80
2020/12/13 09:19:28;;;;;;;27.53;20.50;;;;;;;6.76;86.75;99890.16;5052437;28;20228;-80
2020/12/13 09:21:56;;;;;;;31.90;20.93;;;;;;;6.78;87.22;99903.97;5055655;28;20206;-79
2020/12/13 09:24:26;;;;;;;24.93;19.47;;;;;;;6.78;87.25;99905.66;5068728;28;20201;-80
2020/12/13 09:27:06;;;;;;;29.23;20.23;;;;;;;6.82;87.57;99903.03;5070309;28;20199;-80
2020/12/13 09:29:33;;;;;;;24.73;19.33;;;;;;;6.80;87.67;99904.78;5068834;28;20220;-80
2020/12/13 09:31:59;;;;;;;26.73;19.67;;;;;;;6.82;87.59;99907.34;5069684;28;21276;-79
2020/12/13 09:34:26;;;;;;;28.10;20.43;;;;;;;6.91;86.91;99904.66;5068222;28;20268;-79
2020/12/13 09:36:52;;;;;;;25.93;18.87;;;;;;;6.87;87.57;99905.56;5070042;28;20192;-80
2020/12/13 09:39:18;;;;;;;21.83;19.00;;;;;;;6.89;86.95;99907.25;5069488;28;20234;-80
2020/12/13 09:41:45;;;;;;;34.93;20.50;;;;;;;6.99;87.25;99914.94;5070072;28;20289;-80
2020/12/13 09:44:12;;;;;;;26.67;20.73;;;;;;;7.07;87.81;99913.09;5069307;28;20193;-81
2020/12/13 09:46:38;;;;;;;21.70;18.60;;;;;;;7.07;87.40;99911.34;5069521;28;20257;-81
2020/12/13 09:49:04;;;;;;;22.07;18.10;;;;;;;7.17;87.35;99919.88;5065937;28;20234;-81
2020/12/13 09:51:29;;;;;;;33.23;20.37;;;;;;;7.16;87.36;99915.56;5064092;28;20218;-81
2020/12/13 09:53:56;;;;;;;25.00;18.87;;;;;;;7.18;86.69;99915.56;5062880;28;20238;-81
2020/12/13 09:56:21;;;;;;;25.07;19.63;;;;;;;7.20;87.91;99919.84;5063851;28;20242;-81
2020/12/13 09:58:48;;;;;;;25.10;18.70;;;;;;;7.26;87.64;99919.75;5061995;28;20232;-80
2020/12/13 10:01:15;;;;;;;31.07;20.43;;;;;;;7.26;87.05;99922.34;5062321;28;20292;-80
2020/12/13 10:03:44;;;;;;;32.93;20.27;;;;;;;7.12;87.52;99925.13;5061881;28;20204;-80
2020/12/13 10:06:34;;;;;;;41.67;27.13;;;;;;;7.06;88.00;99922.63;5061770;28;20464;-79
2020/12/13 10:09:06;;;;;;;33.43;21.37;;;;;;;7.23;88.13;99929.31;5062156;28;20329;-82
2020/12/13 10:11:33;;;;;;;32.90;21.20;;;;;;;7.40;88.01;99926.50;5061877;28;20214;-80
2020/12/13 10:14:00;;;;;;;35.27;21.67;;;;;;;7.41;87.64;99929.06;5061253;28;20239;-81
2020/12/13 10:16:27;;;;;;;31.00;21.37;;;;;;;7.47;87.44;99929.00;5062143;28;20707;-82
2020/12/13 10:18:53;;;;;;;30.03;21.13;;;;;;;7.40;88.35;99934.28;5060355;28;20221;-80
2020/12/13 10:21:23;;;;;;;37.53;20.97;;;;;;;7.21;88.33;99931.06;5061668;28;20294;-81
2020/12/13 10:23:50;;;;;;;32.13;20.60;;;;;;;7.34;88.30;99935.22;5060663;28;20245;-80
2020/12/13 10:26:16;;;;;;;31.47;20.13;;;;;;;7.39;87.68;99930.81;5060946;28;20225;-80
2020/12/13 10:28:41;;;;;;;31.83;21.10;;;;;;;7.41;87.45;99925.59;5060432;28;20296;-80
2020/12/13 10:31:10;;;;;;;44.00;23.60;;;;;;;7.44;88.19;99929.03;5060298;28;20204;-80
2020/12/13 10:33:43;;;;;;;38.57;21.57;;;;;;;7.46;87.55;99942.00;5060371;28;20212;-80
2020/12/13 10:36:10;;;;;;;36.37;21.23;;;;;;;7.44;88.05;99933.38;5059785;28;20235;-80
2020/12/13 10:38:36;;;;;;;31.83;20.27;;;;;;;7.49;87.62;99934.13;5059931;28;20263;-80
2020/12/13 10:41:05;;;;;;;35.65;26.48;;;;;;;7.32;87.74;99932.66;5059535;28;20513;-80
2020/12/13 10:43:31;;;;;;;38.00;22.47;;;;;;;7.28;88.15;99927.53;5059412;28;20290;-81
2020/12/13 10:45:57;;;;;;;35.90;20.90;;;;;;;7.39;87.56;99929.97;5062607;28;20208;-80
2020/12/13 10:48:24;;;;;;;31.90;21.27;;;;;;;7.16;87.00;99933.75;5062006;28;20296;-82
2020/12/13 10:50:49;;;;;;;34.53;20.67;;;;;;;7.16;87.92;99932.00;5062465;28;20204;-81
2020/12/13 10:53:15;;;;;;;36.47;20.93;;;;;;;7.28;87.89;99928.38;5059893;28;20223;-80
2020/12/13 10:55:41;;;;;;;32.43;22.33;;;;;;;7.31;87.77;99927.47;5059650;28;20772;-80
2020/12/13 10:58:07;;;;;;;30.70;20.60;;;;;;;7.38;88.07;99936.06;5061208;28;20213;-80
2020/12/13 11:00:33;;;;;;;30.07;19.60;;;;;;;7.45;88.17;99935.06;5062257;28;20227;-81
2020/12/13 11:02:59;;;;;;;39.03;21.40;;;;;;;7.43;88.00;99939.44;5062577;28;20260;-80
2020/12/13 11:05:25;;;;;;;38.87;21.47;;;;;;;7.43;87.98;99944.63;5061058;28;20232;-80
2020/12/13 11:07:51;;;;;;;33.23;20.47;;;;;;;7.43;87.42;99942.03;5063326;28;20665;-81
2020/12/13 11:10:17;;;;;;;32.43;20.27;;;;;;;7.44;87.37;99946.34;5061894;28;20290;-79
2020/12/13 11:12:43;;;;;;;39.60;22.37;;;;;;;7.38;87.82;99941.25;5061661;28;20209;-80
2020/12/13 11:15:08;;;;;;;37.57;22.83;;;;;;;7.46;87.67;99937.66;5061440;28;20310;-81
2020/12/13 11:17:35;;;;;;;39.87;23.13;;;;;;;7.44;87.01;99934.22;5062335;28;20212;-81
2020/12/13 11:20:01;;;;;;;35.47;20.70;;;;;;;7.56;87.08;99935.78;5060895;28;20223;-80
2020/12/13 11:22:28;;;;;;;35.70;22.30;;;;;;;7.39;86.94;99938.59;5060545;28;20233;-81
2020/12/13 11:24:53;;;;;;;42.93;22.93;;;;;;;7.46;87.11;99942.00;5061106;28;20264;-81
2020/12/13 11:27:19;;;;;;;44.87;23.03;;;;;;;7.50;87.62;99943.66;5061500;28;20208;-80